Slingerlands, NY (12159)

7:10 AM EST on November 27, 2014 (GMT -0500)
Voorheesville Elementary School | Change Station
CLOSE
Current Station
Personal Weather Station
Location: Voorheesville, NY
Elevation: 341 ft
Nearby Weather Stations

Elev 341 ft 42.65 °N, 73.94 °W | Updated 6 seconds ago

Overcast
Overcast
30.2 °F
Feels Like 30 °F
N
0.0
Wind Variable Wind from NNE
Gusts 0.0 mph

Today
High -- | Low -- °F
--% Chance of Precip.
Yesterday
High -- | Low -- °F
Precip. -- in
7:01 AM 4:24 PM
Waxing Crescent, 29% visible
Pressure 29.98 in
Visibility 10.0 miles
Clouds Few 800 ft
Overcast 2400 ft
Windchill 30 °F
Dew Point 28 °F
Humidity 91%
Rainfall 0.00 in
Snow Depth Not available.
UV 0 out of 12
Pollen .10 out of 12
Air Quality Not available.
Flu Activity Not available.
METAR KALB 271151Z 34005KT 10SM FEW008 OVC024 M01/M03 A2997 RMK AO2 SLP150 4/008 60002 70073 T10061033 11006 21017 52013

More Conditions Fewer Conditions

Pressure 29.98 in
Visibility 10.0 miles
Clouds Few 800 ft
Overcast 2400 ft
Windchill 30 °F
Dew Point 28 °F
Humidity 91%
Rainfall 0.00 in
Snow Depth Not available.
UV 0 out of 12
Pollen .10 out of 12
Air Quality Not available.
Flu Activity Not available.
METAR KALB 271151Z 34005KT 10SM FEW008 OVC024 M01/M03 A2997 RMK AO2 SLP150 4/008 60002 70073 T10061033 11006 21017 52013

More Conditions Fewer Conditions

10-Day Weather Forecast

Almanac

Astronomy

Nov. 27, 2014 Rise Set
Actual Time
Civil Twilight
Nautical Twilight
Astronomical Twilight
Moon
Length of Visible Light
Length of Day
Tomorrow will be .
, % of the Moon is Illuminated

Today's Extremes

State Highs State Lows

Community

WunderPhotos

Upload Photos

1,773,975 photos uploaded!

WunderBlogs® & News

Nearby

Air Quality

  Air Quality AQ Index Pollutant
Not available.

Snow Depth

Station Depth Elevation

Earthquake Activity

City Distance Mag. Time & Date
Minimum magnitude displayed is 2.5.

Coastal Water Temperatures

Place Temperature

Nearby Weather Stations